Date,TemperatureHighF,TemperatureAvgF,TemperatureLowF,DewpointHighF,DewpointAvgF,DewpointLowF,HumidityHigh,HumidityAvg,HumidityLow,PressureMaxIn,PressureMinIn,WindSpeedMaxMPH,WindSpeedAvgMPH,GustSpeedMaxMPH,PrecipitationSumIn
2013-1-2,-6,-10,-14,-12,-16,-19,77,76,73,29.97,29.93,4,1,8,5.80
2013-1-3,21,2,-18,18,-3,-23,88,78,64,29.97,29.67,5,1,11,0.00
2013-1-4,28,25,21,25,22,18,91,87,82,29.67,29.57,18,8,29,0.01
2013-1-5,29,22,14,24,17,10,88,79,62,30.02,29.63,22,5,30,0.00
2013-1-6,32,27,19,28,24,15,92,88,83,29.92,29.67,8,2,13,0.00
2013-1-7,30,19,15,28,15,10,92,82,69,30.13,29.77,8,2,14,0.00
2013-1-8,36,27,20,26,21,15,85,77,63,30.16,29.96,8,2,16,0.01
2013-1-9,38,30,16,31,24,13,91,79,66,30.14,29.72,24,5,34,0.31
2013-1-10,41,29,18,28,22,15,89,74,56,30.35,29.90,16,4,31,0.01
2013-1-11,38,28,16,34,22,13,91,78,42,30.31,29.85,11,3,21,0.01
2013-1-12,52,41,36,43,38,34,95,88,70,29.92,29.84,6,1,11,0.00
2013-1-13,58,46,34,51,43,33,99,90,72,29.92,29.67,9,2,17,0.02
2013-1-14,48,47,47,46,46,46,95,95,95,29.71,29.70,2,1,6,0.00
2013-1-30,55,53,50,50,48,47,92,84,79,29.93,29.79,11,4,21,5.02
2013-1-31,50,30,14,48,25,7,94,82,67,30.05,29.44,24,10,47,0.76
2013-2-1,18,11,5,9,5,1,83,76,61,30.57,30.05,14,5,24,0.00
2013-2-2,16,10,1,10,4,-4,82,78,70,30.61,30.45,8,2,15,0.00
2013-2-3,28,13,-1,17,6,-5,85,73,43,30.46,30.22,7,1,11,0.00
2013-2-4,20,11,1,11,2,-5,87,66,37,30.37,30.22,22,5,32,0.08
2013-2-5,22,10,-8,8,-1,-13,81,63,35,30.44,30.32,6,1,9,0.00
2013-2-6,25,15,-3,18,8,-9,87,72,52,30.81,30.32,12,3,19,0.00
2013-2-7,24,8,-8,7,-2,-13,81,64,45,30.95,30.76,8,2,16,0.00
2013-2-8,24,17,14,20,13,6,90,85,64,30.76,30.38,8,3,17,0.00
2013-2-9,17,8,-6,11,1,-11,88,73,51,30.83,30.43,11,3,18,0.00
2013-2-10,34,13,-16,15,-2,-21,82,54,29,30.90,30.64,8,1,14,0.00
2013-2-11,39,31,26,34,20,-2,92,68,26,30.64,30.12,15,4,26,0.18
2013-2-12,32,28,24,29,25,21,93,89,84,30.38,30.11,17,7,27,0.00
2013-2-13,35,27,23,28,22,19,90,81,65,30.35,30.25,10,1,17,0.01
2013-2-14,36,28,20,25,21,18,91,75,53,30.42,30.26,7,1,10,0.01
2013-2-15,35,30,23,30,23,15,92,77,61,30.48,30.30,14,4,23,0.17
2013-2-16,33,19,7,18,8,-1,83,65,44,30.49,30.39,8,2,11,0.00
2013-2-17,16,6,-2,3,-3,-6,83,69,52,30.43,30.24,13,4,25,0.00
2013-2-18,23,8,-5,6,-4,-10,80,59,32,30.64,30.43,12,4,22,0.00
2013-2-19,44,27,7,29,16,-1,93,68,34,30.56,30.14,13,3,26,0.00
2013-2-20,28,21,16,20,14,10,88,75,52,30.30,30.15,19,8,28,0.00
2013-2-24,33,28,27,25,23,22,88,81,72,30.06,29.92,8,3,14,0.06
2013-2-25,43,30,24,30,25,21,89,82,59,30.32,30.06,6,1,11,0.02
2013-2-26,44,31,16,33,23,14,93,73,53,30.37,30.11,12,3,21,0.01
2013-2-27,41,34,30,33,28,21,89,79,64,30.11,29.68,12,3,23,0.05
2013-2-28,42,34,30,29,27,25,87,76,57,29.75,29.63,11,2,17,0.01
2013-3-1,32,28,23,27,24,20,93,87,77,29.91,29.74,9,3,14,0.00
2013-3-2,23,20,15,20,15,12,90,84,75,29.92,29.88,8,3,12,0.00
2013-3-3,29,20,14,19,14,11,87,79,62,29.88,29.83,8,3,12,0.00
2013-3-4,25,19,14,16,14,11,89,82,68,30.03,29.85,10,4,18,0.00
2013-3-5,41,26,17,26,20,14,88,77,53,30.18,30.02,6,2,12,0.05
2013-3-6,42,30,18,29,23,16,93,77,55,30.26,30.16,8,2,15,0.00
2013-3-7,35,28,23,23,20,17,89,74,55,30.31,30.23,8,2,14,0.00
2013-3-8,38,28,19,24,20,14,90,74,50,30.44,30.26,8,2,14,0.07
2013-3-9,58,33,8,30,17,5,88,60,23,30.47,30.39,5,1,10,0.00
2013-3-10,55,41,22,26,18,10,85,47,17,30.40,30.19,11,2,19,0.00
2013-3-11,52,46,42,37,26,21,76,45,36,30.25,29.98,11,4,23,0.06
2013-3-12,46,39,32,43,36,29,93,90,77,30.01,28.34,14,4,27,0.83
2013-3-13,41,32,25,33,26,18,90,79,57,29.96,29.87,17,3,26,0.12
2013-3-14,25,17,12,20,9,3,85,71,52,30.01,29.85,14,6,24,0.04
2013-3-15,34,18,4,26,13,0,88,79,72,30.02,29.67,14,4,23,0.01
2013-3-16,36,19,6,20,9,1,85,67,43,30.00,29.87,8,2,16,0.00
2013-3-17,33,15,2,16,2,-5,85,60,33,30.40,29.99,14,3,20,0.00
2013-3-18,36,18,-6,15,-2,-12,79,48,15,30.45,30.06,10,2,19,0.01
2013-3-19,33,26,22,26,22,15,90,84,65,30.07,29.79,12,4,19,0.00
2013-3-20,35,25,18,24,18,14,87,74,54,32.10,29.77,17,5,27,0.01
2013-3-21,42,23,11,20,13,8,88,69,34,29.82,29.74,12,3,17,0.02
2013-3-22,41,24,16,24,16,10,86,74,48,29.88,29.74,10,3,17,0.01
2013-3-23,36,28,22,25,20,17,90,74,55,29.97,29.84,15,6,29,0.00
2013-3-24,41,30,20,26,20,15,79,69,51,30.00,29.91,9,3,15,0.00
2013-3-25,45,30,15,30,19,12,89,66,41,29.91,29.71,8,1,14,0.00
2013-3-26,43,34,27,26,20,15,79,59,34,29.95,29.76,10,3,17,0.00
2013-3-27,60,36,27,32,25,18,80,64,31,30.08,29.93,9,3,15,0.00
2013-3-28,49,36,29,35,28,23,89,74,55,30.22,30.06,7,2,13,0.00
2013-3-29,48,36,29,36,29,26,89,76,52,30.23,30.17,11,3,17,0.01
2013-3-30,56,38,22,39,20,10,94,57,18,30.25,30.18,9,2,16,0.00
2013-3-31,53,38,25,34,24,17,82,59,26,30.20,29.79,10,2,21,0.01
2013-4-1,38,33,22,36,25,10,91,72,41,29.91,29.67,23,6,37,0.21
2013-4-2,33,23,17,19,12,9,80,64,43,30.03,29.89,23,8,36,0.04
2013-4-3,38,27,17,16,10,5,75,52,27,30.33,30.02,19,8,30,0.04
2013-4-4,46,34,17,20,16,12,81,51,28,30.36,30.01,11,3,24,0.00
2013-4-5,43,35,31,31,22,16,74,58,47,30.01,29.93,11,3,16,0.00
2013-4-6,33,32,31,13,6,3,44,32,27,29.92,29.88,4,1,7,0.00
2013-4-7,60,44,32,39,24,4,72,46,28,29.88,29.48,12,4,26,0.05
2013-4-8,56,44,35,36,30,23,82,60,31,29.85,29.62,12,3,22,0.02
2013-4-9,47,43,36,44,38,34,93,84,72,29.78,29.50,14,3,26,0.32
2013-4-10,49,41,37,44,39,36,96,91,80,29.75,29.63,4,0,8,0.22
2013-4-11,38,33,28,36,20,14,94,61,42,29.85,29.66,7,2,12,0.00
2013-4-12,34,31,27,33,26,13,94,83,52,29.83,29.40,7,1,14,0.01
2013-4-13,40,35,33,35,32,30,95,90,83,29.61,29.46,10,2,15,0.14
2013-4-14,43,35,26,35,29,23,92,79,62,29.92,29.59,12,3,20,0.06
2013-4-15,60,43,23,35,29,21,93,62,36,30.00,29.88,8,2,14,0.00
2013-4-16,60,51,42,51,43,33,94,75,54,29.91,29.68,11,4,25,0.21
2013-4-17,56,44,32,41,31,24,95,62,37,30.05,29.87,9,2,14,0.00
2013-4-18,38,35,33,28,26,25,79,70,62,30.04,29.98,4,1,8,0.00
2013-4-28,71,63,56,38,35,33,44,35,26,29.90,29.84,5,2,12,1.46
2013-4-29,62,53,48,44,40,34,83,62,42,29.90,29.85,10,3,17,0.00
2013-4-30,70,57,46,49,44,41,85,65,42,30.01,29.89,6,2,11,0.00
2013-5-1,81,64,40,53,40,34,95,50,21,30.17,30.01,6,1,11,0.00
2013-5-2,87,68,46,44,37,23,67,37,11,30.18,30.03,6,1,11,0.00
2013-5-3,73,63,52,42,31,16,53,32,12,30.17,30.03,8,3,15,0.00
2013-5-4,81,65,42,44,35,29,73,37,18,30.07,29.92,6,1,11,0.00
2013-5-5,86,67,45,50,34,17,85,38,10,29.98,29.84,7,1,11,0.00
2013-5-6,83,67,45,41,28,14,69,28,10,29.94,29.78,6,1,10,0.00
2013-5-7,86,67,44,49,38,30,68,40,17,29.90,29.78,7,2,11,0.00
2013-5-8,79,63,49,56,48,39,86,61,34,29.89,29.75,8,2,15,0.00
2013-5-9,75,62,52,55,50,42,92,69,33,29.75,29.61,8,1,11,0.04
2013-5-10,79,63,51,56,52,46,95,72,32,29.75,29.55,6,1,14,0.01
2013-5-11,64,55,46,58,50,41,94,83,71,29.56,29.40,11,3,19,0.52
2013-5-12,56,45,32,43,34,24,87,66,33,29.51,29.39,17,5,30,0.00
2013-5-13,48,38,31,34,29,26,90,70,48,29.77,29.49,17,6,28,0.02
2013-5-14,61,43,28,36,27,21,91,57,29,29.83,29.73,8,2,14,0.00
2013-5-15,62,47,29,51,38,25,89,72,52,29.76,27.42,14,3,27,0.02
2013-5-16,73,59,46,42,37,31,70,48,23,29.68,29.41,24,7,37,0.24
2013-5-17,67,53,42,44,36,28,81,54,28,29.97,29.68,10,3,15,0.00
2013-5-18,77,58,35,50,36,28,95,51,20,30.04,29.93,6,1,12,0.00
2013-5-19,68,55,42,53,47,38,93,76,46,29.99,29.82,6,1,16,0.11
2013-5-20,75,63,56,61,57,52,92,82,59,29.83,29.72,7,2,14,0.01
2013-5-21,81,67,56,64,58,54,98,77,49,29.72,29.51,14,2,26,0.58
2013-5-22,86,70,57,68,61,56,99,75,50,29.61,29.47,9,1,17,0.24
2013-5-23,77,64,53,62,59,52,97,83,56,29.55,29.49,12,2,23,0.35
2013-5-24,53,42,39,52,40,36,97,93,88,29.81,29.51,11,4,19,0.45
2013-5-25,41,39,37,39,37,35,96,92,88,29.79,29.71,11,4,19,0.81
2013-5-26,56,44,38,42,37,32,94,80,42,29.83,29.66,15,6,27,0.39
2013-5-27,69,54,38,43,34,25,85,53,24,29.94,29.83,11,2,20,0.00
2013-5-28,78,58,35,49,37,30,94,54,19,29.95,29.80,4,1,14,0.00
2013-5-29,74,64,54,65,58,48,95,83,66,29.81,29.69,8,2,17,0.24
2013-5-30,86,73,60,66,61,58,95,70,43,29.87,29.76,11,3,19,0.00
2013-5-31,93,76,60,66,59,55,89,60,34,29.87,29.71,8,2,17,0.00
2013-6-1,89,74,62,69,62,57,98,70,42,29.75,29.58,9,2,22,0.98
2013-6-2,80,69,60,69,62,55,99,81,52,29.62,29.46,14,2,31,0.43
2013-6-3,63,56,46,57,46,38,90,70,48,29.67,29.57,10,4,21,0.00
2013-6-4,66,54,42,43,40,37,85,60,38,29.89,29.66,12,4,26,0.00
2013-6-5,67,50,39,42,39,35,94,68,32,29.94,29.87,7,1,13,0.00
2013-6-6,59,53,48,52,47,41,95,81,58,29.90,29.76,4,1,9,0.39
2013-6-7,57,53,49,53,50,48,96,92,82,29.76,29.60,5,1,11,0.65
2013-6-8,64,56,51,57,53,50,99,91,77,29.80,29.54,7,2,12,0.31
2013-6-9,77,64,54,57,52,45,93,69,37,29.96,29.79,8,2,15,0.01
2013-6-10,75,61,48,57,53,46,96,77,45,29.97,29.63,5,1,16,0.31
2013-6-11,65,57,52,59,55,51,97,93,80,29.63,29.34,10,2,17,1.32
2013-6-12,71,60,51,54,51,49,98,75,47,29.64,29.45,9,3,19,0.06
2013-6-13,63,56,48,56,51,47,97,84,67,29.62,29.44,4,1,11,0.01
2013-6-14,77,61,47,59,50,43,99,70,41,29.68,29.50,11,2,18,0.01
2013-6-15,78,62,43,55,44,37,94,57,24,29.75,29.67,9,2,17,0.00
2013-6-16,68,59,52,58,52,41,94,77,55,29.71,29.46,8,1,15,0.17
2013-6-17,75,62,51,60,55,46,98,80,54,29.72,29.55,11,3,19,0.24
2013-6-18,70,57,46,52,46,39,96,69,35,29.78,29.68,8,1,12,0.01
2013-6-19,70,57,40,46,38,30,92,55,24,29.94,29.78,8,2,13,0.00
2013-6-20,78,61,40,53,42,33,95,57,22,30.01,29.94,6,1,13,0.00
2013-6-21,85,66,48,56,50,45,91,61,28,30.04,29.97,6,1,11,0.00
2013-6-22,83,68,56,63,58,53,93,73,47,29.99,29.84,7,1,12,0.14
2013-6-23,88,75,63,71,66,61,99,76,51,29.87,29.75,13,2,26,0.26
2013-6-24,93,78,68,71,66,63,85,68,45,29.81,29.69,10,2,18,0.00
2013-6-25,92,75,67,70,66,62,89,74,42,29.73,29.56,10,2,17,0.18
2013-6-26,81,72,66,68,65,63,93,79,59,29.60,29.55,8,2,11,0.24
2013-6-27,93,75,64,70,63,58,94,70,33,29.60,29.48,5,1,10,0.04
2013-6-28,65,62,58,63,59,55,99,91,78,29.49,29.22,10,2,16,1.49
2013-6-29,81,65,55,67,60,54,98,84,56,29.48,29.29,6,1,11,0.06
2013-6-30,84,69,56,65,60,54,97,74,49,29.73,29.48,8,1,11,0.00
2013-7-1,72,64,57,62,59,56,97,84,68,29.86,29.73,5,1,11,0.84
2013-7-2,85,69,56,70,64,56,99,84,59,29.91,29.83,9,1,14,0.02
2013-7-3,88,75,67,74,69,65,99,82,56,29.95,29.88,8,1,12,0.15
2013-7-4,88,75,67,72,68,64,99,81,48,29.97,29.87,8,1,16,0.01
2013-7-5,90,75,67,72,68,64,95,78,50,29.94,29.84,6,1,13,0.12
2013-7-6,86,75,66,68,64,60,93,71,44,29.90,29.81,8,2,15,0.00
2013-7-7,91,75,66,70,65,59,87,72,48,29.85,26.79,7,1,13,0.00
2013-7-8,70,68,65,66,64,62,94,89,86,29.92,29.73,1,0,4,0.01
2013-7-9,90,73,63,72,66,62,98,82,45,29.94,29.83,4,0,8,0.15
2013-7-10,82,74,67,71,68,66,97,84,67,29.83,29.60,6,1,14,0.05
2013-7-11,81,70,57,68,59,53,99,72,48,29.90,29.61,10,3,16,1.22
2013-7-12,84,68,53,62,55,51,98,68,35,30.07,29.90,5,1,9,0.00
2013-7-13,82,70,56,66,60,54,93,74,55,30.15,30.06,4,0,8,0.00
2013-7-14,86,75,66,70,67,63,93,76,55,30.18,30.11,4,1,8,0.00
2013-7-15,93,78,63,72,64,58,98,67,36,30.14,30.06,8,2,17,0.00
2013-7-16,95,78,63,73,64,60,96,67,39,30.13,30.06,8,1,13,0.00
2013-7-17,97,80,66,72,68,64,95,69,36,30.08,29.90,9,2,17,0.02
2013-7-18,93,77,67,73,68,65,99,77,43,29.94,29.81,8,2,15,0.13
2013-7-19,90,78,68,73,69,64,99,76,48,29.82,29.57,19,4,37,0.14
2013-7-20,81,71,64,68,62,56,91,74,44,29.73,29.56,10,3,20,0.19
2013-7-21,79,66,55,58,54,48,92,68,39,29.89,29.72,7,1,11,0.00
2013-7-22,88,69,51,64,57,50,96,70,37,29.89,29.69,5,1,9,0.01
2013-7-23,85,73,66,67,63,59,94,74,46,29.69,29.46,8,1,19,0.02
2013-7-24,68,58,46,64,51,43,96,79,59,29.90,29.47,9,3,17,0.47
2013-7-25,74,59,42,54,45,40,98,65,33,29.98,29.89,8,1,13,0.00
2013-7-26,80,62,44,57,51,43,96,70,39,29.97,29.87,7,1,11,0.00
2013-7-27,88,70,52,63,56,50,96,64,32,29.90,29.78,5,1,10,0.00
2013-7-28,77,68,61,65,61,58,98,81,64,29.83,29.74,6,1,11,0.28
2013-7-29,78,65,53,63,55,50,99,73,42,29.95,29.82,8,2,14,0.04
2013-7-30,78,65,55,59,54,52,92,70,45,30.00,29.94,8,2,14,0.00
2013-7-31,84,66,53,62,56,51,97,73,37,29.99,29.87,6,1,11,0.00
2013-8-1,79,65,57,64,59,54,98,83,53,29.87,29.63,6,1,17,0.32
2013-8-2,78,67,59,63,56,52,99,72,44,29.73,29.66,9,2,20,0.01
2013-8-3,74,63,55,61,55,52,97,77,50,29.74,29.65,11,3,20,0.35
2013-8-4,72,60,53,57,52,48,93,77,48,29.84,29.71,11,3,20,0.05
2013-8-5,71,59,48,55,46,38,96,65,32,29.92,29.84,10,2,14,0.01
2013-8-6,82,64,46,58,49,44,95,64,33,29.95,29.90,5,1,11,0.00
2013-8-7,78,66,54,62,57,50,87,72,50,29.94,29.81,6,1,13,0.05
2013-8-8,84,74,68,68,64,61,91,74,52,31.33,29.77,8,2,14,0.05
2013-8-9,78,69,64,70,66,59,99,90,69,29.82,29.67,8,1,17,1.24
2013-8-10,74,65,58,59,52,44,85,63,36,29.91,29.72,9,4,15,0.00
2013-8-11,80,65,52,59,52,48,96,65,39,29.95,29.87,8,2,15,0.00
2013-8-12,80,67,57,59,53,48,83,64,39,29.89,29.75,7,2,14,0.00
2013-8-13,73,63,55,62,57,50,89,82,65,29.75,29.56,9,1,18,0.11
2013-8-14,66,56,51,55,50,47,86,79,63,29.84,29.58,9,3,17,0.02
2013-8-15,73,61,48,55,48,45,93,66,42,29.95,29.83,10,2,17,0.00
2013-8-16,80,64,51,59,52,48,96,69,38,30.07,29.93,7,2,12,0.00
2013-8-17,83,65,49,62,52,47,97,68,35,30.14,30.06,6,1,10,0.00
2013-8-18,82,65,51,61,54,49,98,72,34,30.13,29.36,4,1,11,0.00
2013-8-19,84,68,52,63,56,51,99,69,37,29.97,29.87,8,2,14,0.01
2013-8-20,85,70,55,64,58,53,94,70,41,29.99,29.89,8,2,15,0.00
2013-8-21,87,72,59,65,61,57,96,71,43,30.01,29.88,11,2,17,0.00
2013-8-22,86,69,63,67,62,58,94,80,50,29.90,29.74,11,2,26,0.24
2013-8-23,74,62,50,61,53,48,96,74,47,30.05,29.80,9,2,15,0.01
2013-8-24,79,62,46,58,50,46,98,71,37,30.20,30.05,4,1,8,0.01
2013-8-25,81,65,47,60,51,41,98,65,26,30.21,29.97,8,1,13,0.00
2013-8-26,76,67,62,67,62,56,98,84,72,29.99,27.50,8,2,16,0.31
2013-8-27,74,68,63,68,65,62,99,90,75,29.81,29.76,3,0,7,0.02
2013-8-28,86,71,61,71,64,59,99,80,45,29.84,29.75,8,1,12,0.00
2013-8-29,86,70,61,70,62,60,99,79,46,29.91,29.82,8,1,11,0.00
2013-8-30,87,71,60,69,62,59,99,76,46,29.88,29.67,8,2,14,0.05
2013-8-31,77,68,64,70,66,62,99,91,74,29.71,29.62,6,1,14,0.47
2013-9-1,88,73,64,67,64,62,97,77,49,29.75,29.68,5,1,8,0.00
2013-9-2,80,68,60,67,63,58,98,86,64,29.69,29.55,10,1,21,0.26
2013-9-3,71,62,58,61,57,55,96,84,66,29.71,29.59,9,3,18,0.04
2013-9-4,76,62,54,59,55,52,97,81,49,29.78,29.71,11,3,21,0.25
2013-9-5,64,54,41,56,43,34,97,70,43,30.02,29.75,9,2,16,0.00
2013-9-6,69,53,34,51,40,33,98,66,32,30.08,29.91,7,2,12,0.00
2013-9-7,70,59,52,53,47,43,92,66,40,29.92,29.70,8,2,13,0.00
2013-9-8,60,53,40,57,44,36,98,73,45,29.95,29.66,14,3,22,0.11
2013-9-9,70,54,36,52,42,35,99,68,34,30.01,29.87,8,1,16,0.00
2013-9-10,76,67,57,70,63,50,99,87,75,29.88,29.77,5,1,10,0.35
2013-9-11,90,77,69,73,68,63,94,76,49,29.91,29.79,9,2,24,0.05
2013-9-12,73,68,60,67,64,57,95,87,79,29.79,29.54,7,2,14,0.13
2013-9-13,61,52,45,60,50,44,97,91,77,29.76,29.53,9,4,15,0.24
2013-9-14,60,49,42,47,42,39,97,80,52,29.93,29.74,8,2,16,0.01
2013-9-15,66,54,44,51,46,41,94,76,51,29.97,29.87,7,2,16,0.06
2013-9-16,53,47,35,50,42,32,96,83,57,30.16,29.85,8,2,14,0.22
2013-9-17,64,47,33,52,37,31,99,73,33,30.28,30.14,5,1,9,0.00
2013-9-18,72,55,38,56,43,37,99,71,34,30.14,29.96,5,1,10,0.00
2013-9-19,77,59,41,58,48,41,99,73,37,29.99,29.88,4,1,12,0.00
2013-9-20,82,64,47,62,52,46,99,70,35,29.92,29.73,6,1,11,0.00
2013-9-21,73,63,56,58,54,48,94,72,51,29.75,29.46,7,2,17,0.17
2013-9-22,56,49,42,55,45,39,96,86,70,29.77,29.44,12,3,24,0.11
2013-9-23,49,42,38,40,36,33,90,80,65,29.91,29.76,8,3,14,0.00
2013-9-24,60,47,38,43,39,35,93,76,48,29.89,29.77,9,2,14,0.00
2013-9-25,68,52,38,52,44,37,99,77,48,29.85,29.75,7,1,12,0.00
2013-9-26,66,51,40,53,44,40,99,79,52,31.38,29.84,6,1,11,0.00
2013-9-27,64,51,40,50,45,39,99,84,60,30.13,29.99,5,0,9,0.00
2013-9-28,79,56,37,58,45,37,99,71,36,30.18,30.06,4,0,9,0.00
2013-9-29,77,57,41,59,46,40,99,71,38,30.07,29.88,6,1,29,0.00
2013-9-30,79,57,41,61,46,40,99,72,36,29.91,29.81,5,0,8,0.00
2013-10-1,79,58,45,59,50,43,96,75,46,29.86,29.76,8,1,12,0.00
2013-10-2,74,62,52,60,54,44,92,75,48,29.87,29.72,12,3,24,0.00
2013-10-3,78,58,42,54,44,40,94,65,34,29.96,29.87,5,1,9,0.00
2013-10-4,61,51,41,54,48,40,97,89,67,29.93,29.88,3,0,5,0.01
2013-10-5,62,54,50,52,48,42,95,81,56,29.95,29.90,3,0,6,0.00
2013-10-6,60,54,48,57,49,38,96,83,63,29.95,29.77,8,2,14,0.00
2013-10-7,72,59,49,60,54,44,95,83,62,29.77,29.47,16,4,27,0.28
2013-10-8,63,48,36,45,38,32,93,70,40,30.19,29.74,12,3,22,0.00
2013-10-9,70,48,31,51,37,30,99,72,32,30.25,30.14,4,0,7,0.00
2013-10-10,68,52,34,49,39,33,97,68,29,30.14,30.01,4,0,5,0.00
2013-10-11,73,53,36,57,35,16,99,61,12,30.01,29.95,4,0,8,0.00
2013-10-12,76,56,35,52,42,30,90,64,35,30.13,30.00,8,2,15,0.00
2013-10-13,72,59,48,49,46,44,89,65,40,30.18,30.08,5,2,11,0.00
2013-10-14,58,53,47,53,50,46,99,88,66,30.12,30.08,5,1,14,0.00
2013-10-15,68,54,43,61,48,42,99,84,56,30.11,29.87,4,1,10,0.00
2013-10-16,67,59,53,52,48,39,85,70,46,29.88,29.63,7,2,14,0.00
2013-10-17,58,52,47,54,49,45,98,87,73,29.68,29.51,8,2,15,0.00
2013-10-18,56,49,43,48,43,34,99,82,54,29.72,29.48,17,4,27,0.00
2013-10-19,59,49,39,45,41,36,92,74,52,29.72,29.45,8,2,17,0.00
2013-10-20,53,44,38,44,36,31,92,75,52,29.81,29.45,14,5,28,0.00
2013-10-21,62,51,37,42,38,35,92,64,38,29.84,29.64,10,2,18,0.00
2013-10-22,54,45,37,43,35,28,87,69,51,29.64,29.52,16,4,26,0.00
2013-10-23,52,39,32,36,32,28,89,75,48,29.58,29.45,9,2,16,0.00
2013-10-24,42,34,28,35,30,24,92,84,66,29.69,29.49,12,4,22,0.00
2013-10-25,42,34,27,32,28,24,91,78,62,29.91,29.69,10,4,17,0.00
2013-10-26,37,34,27,33,31,25,94,88,82,29.88,29.57,10,3,20,0.00
2013-10-27,41,36,34,36,32,28,95,85,73,29.81,29.54,11,3,19,0.00
2013-10-28,44,34,23,37,27,17,90,75,47,30.15,29.77,13,3,23,0.00
2013-10-29,42,29,18,33,19,13,94,69,35,30.22,30.08,5,1,9,0.00
2013-10-30,42,35,27,36,30,18,93,81,63,30.09,29.96,6,1,12,0.00
2013-10-31,58,38,33,53,37,32,97,94,85,29.99,29.37,10,1,17,0.00
2013-11-1,60,55,47,57,49,41,93,80,57,29.48,29.10,21,7,42,0.00
2013-11-2,47,41,31,42,38,28,96,88,80,29.71,29.43,7,2,12,0.00
2013-11-3,35,27,19,28,18,13,90,71,50,30.25,29.71,9,1,14,0.00
2013-11-4,36,26,15,25,15,12,91,64,42,30.41,30.25,8,1,15,0.00
2013-11-5,50,40,28,33,24,14,69,55,44,30.33,30.17,7,2,14,0.00
2013-11-6,59,50,40,48,38,31,89,66,48,30.17,29.64,8,3,17,0.00
2013-11-7,51,40,28,50,38,24,96,89,79,29.70,29.53,15,4,29,0.00
2013-11-8,33,31,29,29,25,21,92,80,69,29.91,29.63,11,1,16,0.00
2013-11-9,42,32,24,31,25,19,92,75,51,29.96,29.63,7,2,11,0.00
2013-11-10,44,36,29,39,34,27,95,90,78,29.77,29.50,17,4,25,0.00
2013-11-11,38,32,23,32,28,21,96,87,69,29.87,29.62,15,3,24,0.00
2013-11-12,24,20,16,21,15,11,92,83,77,30.04,29.75,10,3,17,0.00
2013-11-13,33,23,15,24,16,9,85,74,49,30.08,29.80,10,4,24,0.00
2013-11-14,36,32,26,30,25,20,82,75,55,29.83,29.78,8,2,17,0.00
2013-11-15,49,40,33,28,23,19,65,51,39,29.95,29.82,9,2,17,0.00
2013-11-16,53,42,34,32,28,23,68,57,38,30.04,29.93,6,1,10,0.00
2013-11-17,55,48,41,51,42,29,93,80,61,29.99,29.35,14,4,27,0.00
2013-11-18,55,43,32,52,38,25,94,80,66,29.48,29.20,17,7,33,0.00
2013-11-19,32,25,18,25,17,12,87,72,64,30.15,29.47,17,6,36,0.00
2013-11-20,39,23,11,27,14,8,90,70,46,30.35,30.15,4,1,7,0.00
2013-11-21,43,32,18,27,16,4,78,56,23,30.33,30.09,5,2,14,0.00
2013-11-22,40,37,32,40,34,25,99,90,66,30.10,29.65,12,2,23,0.00
2013-11-23,31,23,13,29,19,8,91,85,68,29.80,29.57,0,0,0,0.00
2013-11-24,16,9,4,9,3,-2,86,76,59,30.02,29.66,14,4,27,0.00
2013-11-25,27,16,-1,17,7,-6,83,69,53,30.08,29.85,6,2,15,0.00
2013-11-26,32,28,26,28,21,11,93,77,52,29.95,29.67,8,3,15,0.00
2013-11-27,34,30,17,33,28,15,98,94,89,29.67,29.23,12,3,19,0.00
2013-11-28,21,14,6,16,9,2,91,81,65,30.14,29.42,13,5,27,0.00
2013-11-29,27,9,-1,16,3,-4,87,76,48,30.45,30.14,5,1,9,0.00
2013-11-30,24,12,-4,15,5,-9,85,73,53,30.45,30.00,11,2,19,0.00
2013-12-1,39,30,23,29,24,14,90,80,62,30.00,29.77,8,1,13,0.00
2013-12-2,37,31,27,32,28,26,93,89,78,29.78,29.65,2,0,4,0.00
2013-12-3,37,32,26,32,28,22,96,87,75,29.79,29.67,5,1,10,0.00
2013-12-4,39,27,17,28,22,15,93,82,61,29.90,29.77,5,0,10,0.00
2013-12-5,51,44,34,48,41,29,96,87,78,29.85,29.61,15,3,29,0.00
2013-12-6,41,31,27,38,27,21,93,83,73,29.93,29.72,14,4,19,0.00
2013-12-7,28,23,18,21,17,13,85,78,64,30.19,29.89,11,4,18,0.00
2013-12-8,26,20,16,16,14,11,86,77,63,30.29,30.10,8,2,14,0.00
2013-12-9,36,27,19,32,22,13,91,81,71,30.11,29.58,16,5,31,0.00
2013-12-10,30,22,13,25,13,4,81,70,56,29.70,29.57,17,6,29,0.00
2013-12-11,21,15,10,15,9,3,82,75,67,29.90,29.69,17,5,26,0.00
2013-12-12,16,8,-4,8,1,-8,87,74,45,29.98,29.63,8,2,17,0.00
2013-12-13,16,5,-12,11,1,-17,89,82,70,30.11,29.61,11,3,17,0.00
2013-12-14,12,-1,-15,9,-7,-19,87,77,61,30.21,29.68,10,2,21,0.00
2013-12-15,23,18,10,20,14,7,89,86,82,29.68,29.31,15,3,25,0.00
2013-12-16,15,3,-13,11,-3,-18,88,75,58,29.90,29.43,12,3,22,0.00
2013-12-17,19,2,-19,15,-3,-24,86,80,75,29.90,29.67,7,1,12,0.00
2013-12-18,28,20,13,22,17,10,90,85,75,29.77,29.66,11,2,18,0.00
2013-12-19,32,27,20,26,22,17,90,81,69,29.96,29.65,8,2,18,0.00
2013-12-20,41,35,30,41,34,26,99,94,86,29.94,29.74,4,1,11,0.00
2013-12-21,50,42,32,48,42,32,99,99,98,29.81,29.69,8,2,21,0.00
2013-12-22,48,35,29,48,35,28,99,98,92,29.88,29.58,13,2,22,0.00
2013-12-23,38,32,16,37,30,11,98,92,76,30.07,29.87,5,1,11,0.00
2013-12-24,28,12,-2,18,7,-7,90,78,59,30.20,30.00,0,0,0,0.00
2013-12-25,19,7,-7,8,-1,-11,83,69,53,30.33,30.13,0,0,0,0.00
2013-12-26,25,19,14,20,14,4,88,79,61,30.13,29.93,12,2,21,0.00
2013-12-27,28,23,21,21,18,16,88,83,72,30.09,29.98,14,3,24,0.00
2013-12-28,34,31,22,32,28,18,94,88,79,29.99,29.86,13,3,22,0.00
2013-12-29,40,34,28,33,30,26,96,85,65,29.89,29.51,8,1,14,0.00
2013-12-30,35,13,-2,33,8,-6,94,80,64,30.05,29.51,14,1,26,0.00
2013-12-31,16,9,1,12,4,-4,86,79,71,30.01,29.77,15,2,29,0.00
2014-1-1,17,5,-3,9,-2,-13,85,72,55,30.22,29.97,11,4,20,0.00
2014-1-2,-1,-4,-6,-7,-10,-12,80,74,65,30.19,29.81,4,1,9,0.00